Tiempo atmosférico en la estación meteorológica de Xinzo De Limia, Ourense (600 m.)



Fecha
DESCASC
Temp. máxima en grados centígrados (hora)
DESCASC
Temp. mínima en grados centígrados (hora)
DESCASC
Temp. media en grados centígrados
DESCASC
Racha de viento máxima en m/sg (hora)
DESCASC
Velocidad máxima media en intervalos de 10 minutos(hora)
DESCASC
Precipitaciones diarias en mm
DESCASC
Precipitaciones de 00:00 a 06:00 en mm
DESCASC
Precipitaciones de 06:00 a 12:00 en mm
DESCASC
Precipitaciones de 12:00 a 18:00 en mm
DESCASC
Precipitaciones de 18:00 a 24:00 en mm
DESCASC
15-08-2019 29.5 (16:30) 10.7 (04:40) 20.1 6.67 (14:40) 4.17 (17:50) 0 0 0 0 0
14-08-2019 26.7 (15:30) 7.1 (00:00) 16.9 8.33 (16:20) 5.28 (16:30) 0 0 0 0 0
13-08-2019 26.7 (16:30) 2.1 (00:00) 14.4 7.78 (17:20) 4.72 (11:40) 0 0 0 0 0
12-08-2019 20.7 (16:40) 4.3 (00:00) 12.5 8.89 (14:20) 5 (13:30) 0 0 0 0 0
11-08-2019 20.7 (17:10) 8.9 (00:00) 14.8 10.28 (18:00) 5.83 (17:40) 0 0 0 0 0
10-08-2019 23.5 (16:20) 7.5 (00:00) 15.5 7.5 (18:00) 4.17 (19:00) 0 0 0 0 0
09-08-2019 21 (14:40) 13 (00:00) 17 10.28 (15:30) 4.17 (15:50) 3.2 3.2 0 0 0
08-08-2019 26.8 (15:40) 16.5 (00:00) 21.6 12.22 (16:00) 6.11 (16:00) 2 0 0 0.1 1.9
07-08-2019 21 (13:00) 11.7 (00:00) 16.3 7.22 (20:10) 4.72 (20:10) 5.6 0 0.2 4.8 0.6
06-08-2019 25 (14:50) 11.1 (00:00) 18.1 7.5 (17:00) 4.72 (17:00) 0.1 0 0.1 0 0
05-08-2019 30.3 (17:50) 11.7 (00:00) 21 7.22 (16:40) 4.17 (19:50) 0 0 0 0 0
04-08-2019 29.2 (17:40) 14.7 (00:00) 22 7.5 (13:40) 4.44 (13:50) 0 0 0 0 0
03-08-2019 31 (16:30) 8.3 (00:00) 19.7 8.33 (17:30) 4.44 (17:30) 0 0 0 0 0
02-08-2019 30.5 (16:20) 8.3 (00:00) 19.4 6.67 (18:00) 3.89 (15:50) 0.1 0 0.1 0 0
01-08-2019 27.9 (17:50) 5.8 (00:00) 16.8 6.67 (15:30) 3.61 (17:10) 0.1 0 0.1 0 0
31-07-2019 25.2 (19:00) 2.9 (00:00) 14.1 7.22 (17:40) 4.17 (15:50) 0 0 0 0 0
30-07-2019 22.4 (18:20) 5.2 (00:00) 13.8 8.89 (14:10) 4.44 (18:30) 0 0 0 0 0
29-07-2019 21.2 (16:40) 10.3 (00:00) 15.8 11.11 (15:30) 6.39 (15:30) 0.2 0 0.2 0 0
28-07-2019 28.1 (18:30) 4.6 (00:00) 16.4 10.56 (21:20) 5.56 (21:30) 0 0 0 0 0
27-07-2019 21.1 (15:30) 10.9 (00:00) 16 9.44 (11:30) 5.28 (16:40) 1.2 0.7 0.2 0.3 0
26-07-2019 23.5 (16:20) 7.6 (00:00) 15.5 8.33 (15:30) 5 (15:30) 0 0 0 0 0
25-07-2019 26.9 (13:40) 10.7 (00:00) 18.8 9.17 (15:50) 5 (15:50) 1.7 0 0 0 1.7
24-07-2019 33.1 (14:50) 8.1 (00:00) 20.6 11.67 (16:30) 5 (13:00) 0 0 0 0 0
23-07-2019 32.6 (16:00) 15.4 (00:00) 24 12.5 (06:40) 7.78 (06:50) 2.1 0.2 1.9 0 0
22-07-2019 37 (16:20) 10.6 (00:00) 23.8 6.39 (15:20) 3.61 (15:10) 0.1 0 0.1 0 0
21-07-2019 29.8 (18:50) 11.6 (00:00) 20.7 6.67 (16:50) 4.72 (16:40) 0 0 0 0 0
20-07-2019 28.9 (16:20) 11.3 (00:00) 20.1 9.72 (14:00) 4.72 (17:40) 0 0 0 0 0
19-07-2019 31.7 (16:20) 10.3 (00:00) 21 8.06 (19:30) 4.72 (20:30) 0 0 0 0 0

Gráficas

Temp. máximas Temp. mínimas Temp. medias Precipitaciones Rachas de viento máximas Velocidades máximas media en intervalos de 10 minutos

Datos horarios

Fecha y hora oficial Temperatura (ºC) Velocidad del viento (km/h) Dirección del viento Racha (km/h) Dirección de racha Precipitación (mm) Presión (hPa) Tendencia (hPa) Humedad (%)
2019-08-17 23:00:00 18.1 4 Oeste 17 Oeste 0 -- -- 81
2019-08-17 22:00:00 19.4 2 Norte 15 Noroeste 0 -- -- 71
2019-08-17 21:00:00 23.7 10 Oeste 19 Oeste 0 -- -- 56
2019-08-17 20:00:00 27.9 8 Sudoeste 27 Sudoeste 0 -- -- 33
2019-08-17 19:00:00 29.2 11 Oeste 27 Oeste 0 -- -- 31
2019-08-17 18:00:00 30.2 13 Oeste 26 Oeste 0 -- -- 31
2019-08-17 17:00:00 30.5 12 Oeste 24 Noroeste 0 -- -- 31
2019-08-17 16:00:00 31 6 Oeste 19 Oeste 0 -- -- 32
2019-08-17 15:00:00 29.8 4 Oeste 18 Oeste 0 -- -- 33
2019-08-17 14:00:00 27.2 5 Oeste 14 Noroeste 0 -- -- 38
2019-08-17 13:00:00 24.3 3 Sur 9 Sudeste 0 -- -- 53
2019-08-17 12:00:00 19.4 2 Noroeste 9 Este 0 -- -- 88
2019-08-17 11:00:00 14.9 3 Sudeste 7 Sudeste 0 -- -- 93
2019-08-17 10:00:00 12.4 0 Calma 6 Sudeste 0 -- -- 92
2019-08-17 09:00:00 9.9 3 Sur 6 Sudoeste 0 -- -- 92
2019-08-17 08:00:00 7 0 Calma 3 Norte 0 -- -- 92
2019-08-17 07:00:00 7.6 0 Calma 7 Sur 0 -- -- 92
2019-08-17 06:00:00 8.4 0 Calma 4 Oeste 0 -- -- 91
2019-08-17 05:00:00 8.9 0 Calma 4 Sudoeste 0 -- -- 91
2019-08-17 04:00:00 9.1 0 Calma 5 Oeste 0 -- -- 90
2019-08-17 03:00:00 10 0 Calma 4 Sudoeste 0 -- -- 88
2019-08-17 02:00:00 10.9 0 Calma 4 Nordeste 0 -- -- 86
2019-08-17 01:00:00 12.4 3 Este -- -- -- -- -- 83
2019-08-17 00:00:00 13.7 5 Nordeste 9 Nordeste 0 -- -- 76
2019-08-16 23:00:00 16.4 3 Nordeste 14 Oeste 0 -- -- 66
2019-08-16 22:00:00 19.7 8 Oeste 17 Oeste 0 -- -- 56
2019-08-16 21:00:00 23 10 Oeste 21 Oeste 0 -- -- 44
2019-08-16 20:00:00 26.3 14 Noroeste 23 Noroeste 0 -- -- 35
2019-08-16 19:00:00 27.7 13 Noroeste 29 Noroeste 0 -- -- 31
2019-08-16 18:00:00 29 16 Noroeste 26 Noroeste 0 -- -- 29
2019-08-16 17:00:00 30.2 10 Noroeste 24 Noroeste 0 -- -- 28
2019-08-16 16:00:00 30.4 10 Noroeste 25 Noroeste 0 -- -- 26
2019-08-16 15:00:00 30.4 9 Norte 23 Norte 0 -- -- 25
2019-08-16 14:00:00 29.2 9 Norte 18 Noroeste 0 -- -- 30
2019-08-16 13:00:00 27.4 5 Noroeste 12 Noroeste 0 -- -- 22
2019-08-16 12:00:00 23.7 0 Calma 7 Oeste 0 -- -- 44
2019-08-16 11:00:00 18.2 0 Calma 5 Sur 0 -- -- 93
2019-08-16 10:00:00 13.1 0 Calma 4 Nordeste 0 -- -- 93
2019-08-16 09:00:00 10.3 3 Nordeste 4 Nordeste 0 -- -- 93
2019-08-16 08:00:00 7.8 0 Calma 4 Sudeste 0 -- -- 92
2019-08-16 07:00:00 7.4 0 Calma -- -- 0 -- -- 92
2019-08-16 06:00:00 8.2 0 Calma 0 Calma 0 -- -- 91
2019-08-16 05:00:00 9.7 0 Calma 3 Oeste 0 -- -- 90
2019-08-16 04:00:00 10.9 0 Calma 5 Sur 0 -- -- 90
2019-08-16 03:00:00 11.9 0 Calma 4 Sur 0 -- -- 88
2019-08-16 02:00:00 14.3 2 Sur 6 Sur 0 -- -- 86
2019-08-16 01:00:00 16.2 5 Oeste 9 Oeste 0 -- -- 84
2019-08-16 00:00:00 16.6 3 Noroeste 8 Noroeste 0 -- -- 77
2019-08-15 23:00:00 19.1 5 Noroeste 13 Noroeste 0 -- -- 71
2019-08-15 22:00:00 20.4 6 Norte 18 Norte 0 -- -- 60
2019-08-15 21:00:00 25.1 10 Norte 21 Norte 0 -- -- 44
2019-08-15 20:00:00 27.3 13 Norte -- -- -- -- -- 39
2019-08-15 19:00:00 27.7 13 Noroeste 23 Noroeste 0 -- -- 37
2019-08-15 18:00:00 28.6 14 Norte 23 Noroeste 0 -- -- 37
2019-08-15 17:00:00 28.5 12 Norte 23 Nordeste 0 -- -- 36
2019-08-15 16:00:00 29 10 Noroeste 23 Norte 0 -- -- 35
2019-08-15 15:00:00 28.1 12 Norte 24 Noroeste 0 -- -- 36
2019-08-15 14:00:00 27.6 12 Nordeste 19 Norte 0 -- -- 38
2019-08-15 13:00:00 26.2 8 Norte 15 Nordeste 0 -- -- 34
2019-08-15 12:00:00 24.1 4 Norte 13 Nordeste 0 -- -- 43
2019-08-15 11:00:00 19.7 3 Oeste 9 Oeste 0 -- -- 81
2019-08-15 10:00:00 16.5 2 Sudoeste 12 Sudoeste 0 -- -- 93
2019-08-15 09:00:00 14.6 0 Calma 12 Noroeste 0 -- -- 93
2019-08-15 08:00:00 13.3 6 Oeste 12 Oeste 0 -- -- 93
2019-08-15 07:00:00 12.6 3 Sudoeste 6 Sudoeste 0 -- -- 93
2019-08-15 06:00:00 13.2 2 Sudoeste 5 Noroeste 0 -- -- 92
2019-08-15 05:00:00 12.1 0 Calma 6 Sur 0 -- -- 92
2019-08-15 04:00:00 11.8 2 Sur 5 Sur 0 -- -- 91
2019-08-15 03:00:00 13.7 0 Calma 12 Oeste 0 -- -- 90
2019-08-15 02:00:00 13.9 2 Oeste 11 Oeste 0 -- -- 89
2019-08-15 01:00:00 15.6 5 Oeste 11 Oeste 0 -- -- 86
2019-08-15 00:00:00 16.6 7 Oeste 10 Noroeste 0 -- -- 83
2019-08-14 23:00:00 17.7 6 Noroeste 18 Noroeste 0 -- -- 81
2019-08-14 22:00:00 19 7 Noroeste 22 Norte 0 -- -- 79
2019-08-14 21:00:00 21.6 14 Noroeste 21 Noroeste 0 -- -- 67
2019-08-14 20:00:00 23 12 Noroeste 23 Noroeste 0 -- -- 64
2019-08-14 19:00:00 23.6 12 Noroeste 26 Norte 0 -- -- 57
2019-08-14 18:00:00 25.5 17 Norte 27 Noroeste 0 -- -- 50
2019-08-14 17:00:00 25.8 17 Norte 30 Noroeste 0 -- -- 48
2019-08-14 16:00:00 26.6 14 Norte 26 Norte 0 -- -- 47
2019-08-14 15:00:00 25.7 10 Noroeste 25 Norte 0 -- -- 47
2019-08-14 14:00:00 24.9 11 Norte 24 Noroeste 0 -- -- 49
2019-08-14 13:00:00 23.9 10 Noroeste 25 Norte 0 -- -- 49
2019-08-14 12:00:00 23.5 7 Norte 15 Norte 0 -- -- 47
2019-08-14 11:00:00 19.5 3 Noroeste 8 Noroeste 0 -- -- 70
2019-08-14 10:00:00 14.6 2 Sudoeste 6 Sudoeste 0 -- -- 92
2019-08-14 09:00:00 11 0 Calma 3 Noroeste 0 -- -- 92
2019-08-14 08:00:00 8 0 Calma 8 Sur 0 -- -- 92
2019-08-14 07:00:00 7.2 3 Norte 5 Norte 0 -- -- 92
2019-08-14 06:00:00 8 0 Calma 5 Sudeste 0 -- -- 91
2019-08-14 05:00:00 8.2 0 Calma 5 Norte 0 -- -- 90
2019-08-14 04:00:00 9.7 0 Calma 6 Sudoeste 0 -- -- 89
2019-08-14 03:00:00 10.1 0 Calma 8 Sudoeste 0 -- -- 88
2019-08-14 02:00:00 10.3 0 Calma 5 Sudoeste 0 -- -- 86
2019-08-14 01:00:00 11.7 0 Calma 5 Norte 0 -- -- 81
2019-08-14 00:00:00 13.7 0 Calma 8 Sudoeste 0 -- -- 71
2019-08-13 23:00:00 17 5 Sudoeste 15 Oeste 0 -- -- 63
2019-08-13 22:00:00 18.8 6 Oeste 14 Noroeste 0 -- -- 53
2019-08-13 21:00:00 22.7 7 Noroeste 19 Noroeste 0 -- -- 36
2019-08-13 20:00:00 24.5 13 Noroeste 22 Norte 0 -- -- 33
2019-08-13 19:00:00 25.8 12 Noroeste 25 Noroeste 0 -- -- 32
2019-08-13 18:00:00 25.9 12 Norte 28 Norte 0 -- -- 30
2019-08-13 17:00:00 26.2 8 Nordeste 23 Norte 0 -- -- 29
2019-08-13 16:00:00 26.2 11 Norte 21 Norte 0 -- -- 28
2019-08-13 15:00:00 25.5 5 Nordeste 20 Sudoeste 0 -- -- 28
2019-08-13 14:00:00 24.7 9 Sudeste 22 Nordeste 0 -- -- 32
2019-08-13 13:00:00 23.1 11 Este 26 Este 0 -- -- 36
2019-08-13 12:00:00 20.4 15 Sudeste 27 Este 0 -- -- 43
2019-08-13 11:00:00 16.3 13 Sudeste 24 Sudeste 0 -- -- 82
2019-08-13 10:00:00 9.2 0 Calma 4 Oeste 0 -- -- 93
2019-08-13 09:00:00 5.9 0 Calma 0 Calma 0 -- -- 93
2019-08-13 08:00:00 3.9 0 Calma 0 Calma 0 -- -- 92
2019-08-13 07:00:00 2.1 0 Calma 2 Nordeste 0 -- -- 92
2019-08-13 06:00:00 3.2 0 Calma 3 Norte 0 -- -- 91
2019-08-13 05:00:00 4.2 0 Calma -- -- 0 -- -- 90
2019-08-13 04:00:00 5.7 0 Calma 5 Sur 0 -- -- 89
2019-08-13 03:00:00 6.2 0 Calma 5 Sudoeste 0 -- -- 87
2019-08-13 02:00:00 8.2 0 Calma 9 Sudoeste 0 -- -- 85
2019-08-13 01:00:00 9.1 4 Sudoeste 9 Sudoeste 0 -- -- 80
2019-08-13 00:00:00 10.6 4 Noroeste 12 Noroeste 0 -- -- 75
2019-08-12 23:00:00 11.3 6 Noroeste 10 Noroeste 0 -- -- 66
2019-08-12 22:00:00 13.5 9 Noroeste 17 Noroeste 0 -- -- 55
2019-08-12 21:00:00 17.1 11 Noroeste 24 Norte 0 -- -- 44
2019-08-12 20:00:00 17.9 14 Norte 26 Noroeste 0 -- -- 41
2019-08-12 19:00:00 18.8 13 Norte 22 Norte 0 -- -- 41
2019-08-12 18:00:00 18.8 12 Norte 22 Norte 0 -- -- 41
2019-08-12 17:00:00 19.1 14 Noroeste 30 Noroeste 0 -- -- 39
2019-08-12 16:00:00 18.9 13 Noroeste 29 Norte 0 -- -- 42
2019-08-12 15:00:00 18.7 14 Norte 32 Noroeste 0 -- -- 41
2019-08-12 14:00:00 18.8 17 Norte 30 Noroeste 0 -- -- 41
2019-08-12 13:00:00 18.4 15 Norte 29 Norte 0 -- -- 44
2019-08-12 12:00:00 16.4 12 Norte 26 Norte 0 -- -- 50
2019-08-12 11:00:00 14.9 13 Norte 23 Norte 0 -- -- 62
2019-08-12 10:00:00 11.9 6 Norte 11 Norte 0 -- -- 93
2019-08-12 09:00:00 9.4 0 Calma 6 Oeste 0 -- -- 93
2019-08-12 08:00:00 6.4 2 Oeste 8 Noroeste 0 -- -- 93
2019-08-12 07:00:00 7.4 6 Noroeste 9 Norte 0 -- -- 92
2019-08-12 06:00:00 5 0 Calma 2 Noroeste 0 -- -- 91
2019-08-12 05:00:00 6.5 0 Calma 4 Oeste 0 -- -- 90
2019-08-12 04:00:00 8.7 3 Oeste 6 Oeste 0 -- -- 89
2019-08-12 03:00:00 8.8 0 Calma 7 Oeste 0 -- -- 87
2019-08-12 02:00:00 9.8 3 Noroeste 8 Noroeste 0 -- -- 85
2019-08-12 01:00:00 10.9 4 Noroeste 12 Oeste 0 -- -- 82
2019-08-12 00:00:00 11.4 6 Norte 19 Noroeste 0 -- -- 80
2019-08-11 23:00:00 11.8 12 Noroeste 20 Norte 0 -- -- 77
2019-08-11 22:00:00 13.1 9 Noroeste 19 Noroeste 0 -- -- 68
2019-08-11 21:00:00 15.3 14 Noroeste 29 Noroeste 0 -- -- 53
2019-08-11 20:00:00 17.8 17 Noroeste 31 Norte 0 -- -- 49
2019-08-11 19:00:00 18.9 18 Noroeste 36 Noroeste 0 -- -- 42
2019-08-11 18:00:00 19.8 20 Noroeste 37 Noroeste 0 -- -- 42
2019-08-11 17:00:00 20.5 17 Noroeste 32 Norte 0 -- -- 40
2019-08-11 16:00:00 19.6 17 Noroeste 36 Noroeste 0 -- -- 45
2019-08-11 15:00:00 20.3 15 Noroeste 29 Noroeste 0 -- -- 42
2019-08-11 14:00:00 19.5 11 Noroeste 30 Norte 0 -- -- 42
2019-08-11 13:00:00 17.7 14 Noroeste 29 Noroeste 0 -- -- 47
2019-08-11 12:00:00 16.9 15 Noroeste 26 Oeste 0 -- -- 52
2019-08-11 11:00:00 15.5 8 Noroeste 15 Oeste 0 -- -- 63
2019-08-11 10:00:00 13.3 7 Noroeste 14 Noroeste 0 -- -- 85
2019-08-11 09:00:00 11.3 4 Noroeste 12 Noroeste 0 -- -- 90
2019-08-11 08:00:00 9.7 0 Calma 4 Oeste 0 -- -- 89
2019-08-11 07:00:00 10.3 0 Calma 10 Oeste 0 -- -- 88
2019-08-11 06:00:00 11.3 2 Oeste 12 Noroeste 0 -- -- 87
2019-08-11 05:00:00 11.8 7 Noroeste 14 Noroeste 0 -- -- 86
2019-08-11 04:00:00 12.3 5 Noroeste 12 Oeste 0 -- -- 84
2019-08-11 03:00:00 12.2 5 Oeste 15 Noroeste 0 -- -- 83
2019-08-11 02:00:00 12.6 6 Noroeste 12 Norte 0 -- -- 81
2019-08-11 01:00:00 13.2 7 Noroeste 13 Noroeste 0 -- -- 77
2019-08-11 00:00:00 13.7 5 Noroeste 14 Noroeste 0 -- -- 76
2019-08-10 23:00:00 14.2 6 Noroeste 18 Noroeste 0 -- -- 73
2019-08-10 22:00:00 14.9 8 Noroeste 22 Noroeste 0 -- -- 71
2019-08-10 21:00:00 16.1 10 Noroeste 23 Noroeste 0 -- -- 64
2019-08-10 20:00:00 18.2 12 Oeste 24 Noroeste 0 -- -- 55
2019-08-10 19:00:00 19.4 15 Noroeste 25 Noroeste 0 -- -- 49
2019-08-10 18:00:00 21.3 13 Noroeste 27 Noroeste 0 -- -- 43
2019-08-10 17:00:00 23.4 7 Norte 24 Noroeste 0 -- -- 38
2019-08-10 16:00:00 23.3 10 Norte 21 Noroeste 0 -- -- 40
2019-08-10 15:00:00 22.6 7 Noroeste 24 Norte 0 -- -- 42
2019-08-10 14:00:00 21.2 8 Norte 19 Noroeste 0 -- -- 46
2019-08-10 13:00:00 19.3 8 Noroeste 21 Norte 0 -- -- 49
2019-08-10 12:00:00 18.3 5 Norte 16 Norte 0 -- -- 53
2019-08-10 11:00:00 17.5 3 Noroeste 16 Sur 0 -- -- 67
2019-08-10 10:00:00 14.5 0 Calma 7 Noroeste 0 -- -- 92
2019-08-10 09:00:00 11.5 0 Calma 2 Sur 0 -- -- 92
2019-08-10 08:00:00 7.6 0 Calma 3 Sudeste 0 -- -- 90
2019-08-10 07:00:00 9.6 0 Calma 5 Norte 0 -- -- 90
2019-08-10 06:00:00 11.8 0 Calma 8 Sur 0 -- -- 90
2019-08-10 05:00:00 11.8 0 Calma 4 Sur 0 -- -- 90
2019-08-10 04:00:00 12.3 0 Calma 5 Sudoeste 0 -- -- 89
2019-08-10 03:00:00 12.4 3 Sudeste 6 Oeste 0 -- -- 89
2019-08-10 02:00:00 12.7 0 Calma 6 Oeste 0 -- -- 88
2019-08-10 01:00:00 12.7 0 Calma 5 Oeste 0 -- -- 87
2019-08-10 00:00:00 13.4 3 Sur 15 Oeste 0 -- -- 84
2019-08-09 23:00:00 14.7 4 Oeste 21 Oeste 0 -- -- 79
2019-08-09 22:00:00 15.6 10 Oeste 21 Oeste 0 -- -- 75
2019-08-09 21:00:00 17.2 8 Sudoeste 23 Oeste 0 -- -- 66
2019-08-09 20:00:00 18.1 8 Oeste 24 Oeste 0 -- -- 61
2019-08-09 19:00:00 18.5 8 Sudoeste 30 Oeste 0 -- -- 62
2019-08-09 18:00:00 18.2 9 Sudoeste 32 Oeste 0 -- -- 61
2019-08-09 17:00:00 19.1 15 Oeste 32 Oeste 0 -- -- 55
2019-08-09 16:00:00 20.2 13 Oeste 37 Oeste 0 -- -- 55
2019-08-09 15:00:00 20.7 11 Sudoeste 34 Oeste 0 -- -- 52
2019-08-09 14:00:00 19.9 9 Sudoeste 24 Oeste 0 -- -- 60
2019-08-09 13:00:00 18.4 12 Oeste 30 Oeste 0 -- -- 67
2019-08-09 12:00:00 18 8 Oeste 20 Oeste 0 -- -- 74
2019-08-09 11:00:00 17.3 4 Sur 14 Sur 0 -- -- 77
2019-08-09 10:00:00 15.2 3 Sur 18 Norte 0 -- -- 83
2019-08-09 09:00:00 14.4 3 Sur 13 Oeste 0 -- -- 88
2019-08-09 08:00:00 13.4 4 Oeste 13 Oeste 0 -- -- 91
2019-08-09 07:00:00 13.6 0 Calma 12 Sudoeste 0 -- -- 91
2019-08-09 06:00:00 13.8 2 Sur 9 Sudoeste 0 -- -- 91
2019-08-09 05:00:00 14 4 Sudoeste 18 Oeste 0 -- -- 91
2019-08-09 04:00:00 15 8 Oeste 28 Oeste 0.2 -- -- 91
2019-08-09 03:00:00 17.4 12 Oeste 30 Oeste 1 -- -- 91
2019-08-09 02:00:00 18.6 5 Sudeste 17 Sur 1.8 -- -- 90
2019-08-09 01:00:00 18.8 10 Sudeste 19 Sudeste 0.2 -- -- 89
2019-08-09 00:00:00 19.1 10 Sur 18 Sudeste 1.9 -- -- 86
2019-08-08 23:00:00 20.2 8 Sur 16 Sur 0 -- -- 80
2019-08-08 22:00:00 20.4 6 Sur 22 Sur 0 -- -- 79
2019-08-08 21:00:00 21.4 13 Sur 33 Sur 0 -- -- 70
2019-08-08 20:00:00 22.9 15 Sur 36 Sudoeste 0 -- -- 61
2019-08-08 19:00:00 24.1 19 Sur 38 Sur 0 -- -- 56
2019-08-08 18:00:00 23.7 16 Sudoeste 44 Sudoeste 0 -- -- 58
2019-08-08 17:00:00 24.2 19 Sudoeste 42 Sudoeste 0 -- -- 59
2019-08-08 16:00:00 25.6 22 Sur 44 Sur 0 -- -- 58
2019-08-08 15:00:00 25.4 12 Sudoeste 32 Oeste 0 -- -- 67
2019-08-08 14:00:00 23 8 Oeste 22 Sudeste 0.1 -- -- 87
2019-08-08 13:00:00 20.4 4 Sudeste 33 Sudeste 0 -- -- 88
2019-08-08 12:00:00 20 14 Sudeste 32 Sudeste 0 -- -- 86
2019-08-08 11:00:00 20 12 Sudeste 25 Sudeste 0 -- -- 87
2019-08-08 10:00:00 19.3 14 Sudeste 26 Sudeste 0 -- -- 90
2019-08-08 09:00:00 17.9 14 Sudeste 27 Sudeste 0 -- -- 90
2019-08-08 08:00:00 17.4 17 Sudeste 30 Sudeste 0 -- -- 90
2019-08-08 07:00:00 17.2 13 Sudeste 24 Sudeste 0 -- -- 90
2019-08-08 06:00:00 17.2 12 Sudeste 26 Sudeste 0 -- -- 89
2019-08-08 05:00:00 17.5 14 Sudeste 29 Sudeste 0 -- -- 89
2019-08-08 04:00:00 17.1 13 Sudeste 33 Sudeste 0 -- -- 88
2019-08-08 03:00:00 17.3 13 Sudeste 26 Sudeste 0 -- -- 85
2019-08-08 02:00:00 17.7 14 Sur 28 Sur 0 -- -- 87
2019-08-08 01:00:00 17.3 11 Sur 24 Sur 0 -- -- 89
2019-08-08 00:00:00 16.6 2 Sur 11 Oeste 0 -- -- 89
2019-08-07 23:00:00 17.1 3 Sur 23 Sudeste 0.2 -- -- 89
2019-08-07 22:00:00 17.7 0 Calma 13 Sur 0.2 -- -- 86
2019-08-07 21:00:00 18.3 5 Sur 26 Sudeste 0.2 -- -- 82
2019-08-07 20:00:00 18.3 13 Sur 24 Sudeste 0 -- -- 87
2019-08-07 19:00:00 18.2 12 Sudeste 23 Sudeste 0 -- -- 90
2019-08-07 18:00:00 17.8 12 Sudeste 21 Este 0.1 -- -- 89
2019-08-07 17:00:00 17.7 10 Sudeste 18 Sudeste 1.4 -- -- 89
2019-08-07 16:00:00 17.5 10 Sudeste 18 Sudeste 2.9 -- -- 84
2019-08-07 15:00:00 19.3 6 Oeste 18 Oeste 0.4 -- -- 72
2019-08-07 14:00:00 20.3 6 Oeste 20 Sudeste 0 -- -- 68
2019-08-07 13:00:00 20.8 5 Sur 16 Sudeste 0 -- -- 71
2019-08-07 12:00:00 18.9 9 Sudeste 19 Este 0 -- -- 90
2019-08-07 11:00:00 17.1 6 Sudeste 15 Sudeste 0 -- -- 92
2019-08-07 10:00:00 16.1 10 Sudeste 18 Sudeste 0.2 -- -- 92
2019-08-07 09:00:00 15 0 Calma 7 Sudeste 0 -- -- 92
2019-08-07 08:00:00 13.6 2 Sudeste 6 Sudeste 0 -- -- 92
2019-08-07 07:00:00 12.8 3 Sur 6 Sur 0 -- -- 92
2019-08-07 06:00:00 12.7 3 Sudeste 6 Sudeste 0 -- -- 92
2019-08-07 05:00:00 12.1 2 Sur 5 Sur 0 -- -- 91
2019-08-07 04:00:00 12.4 0 Calma 4 Sudeste 0 -- -- 90
2019-08-07 03:00:00 13.3 0 Calma 4 Nordeste 0 -- -- 89
2019-08-07 02:00:00 15 0 Calma 3 Nordeste 0 -- -- 87
2019-08-07 01:00:00 16.3 0 Calma 14 Oeste 0 -- -- 85
2019-08-07 00:00:00 16.7 2 Sudeste 9 Noroeste 0 -- -- 82
2019-08-06 23:00:00 17.4 4 Oeste 8 Oeste 0 -- -- 81
2019-08-06 22:00:00 18.3 0 Calma 6 Noroeste 0 -- -- 79
2019-08-06 21:00:00 19 7 Oeste 15 Oeste 0 -- -- 75
2019-08-06 20:00:00 19.1 6 Norte 14 Noroeste 0 -- -- 72
2019-08-06 19:00:00 19.9 8 Norte 22 Noroeste 0 -- -- 68
2019-08-06 18:00:00 21.4 12 Noroeste 25 Noroeste 0 -- -- 62
2019-08-06 17:00:00 22.2 17 Noroeste 27 Noroeste 0 -- -- 57
2019-08-06 16:00:00 23.4 13 Norte 24 Noroeste 0 -- -- 57
2019-08-06 15:00:00 24.3 12 Norte 22 Norte 0 -- -- 53
2019-08-06 14:00:00 23.2 7 Nordeste 15 Nordeste 0 -- -- 56
2019-08-06 13:00:00 22 5 Nordeste 12 Norte 0 -- -- 63
2019-08-06 12:00:00 19.6 4 Nordeste 12 Nordeste 0 -- -- 85
2019-08-06 11:00:00 17 2 Oeste 8 Noroeste 0 -- -- 92
2019-08-06 10:00:00 15.4 0 Calma 5 Oeste 0 -- -- 93
2019-08-06 09:00:00 15.3 0 Calma 8 Oeste 0.1 -- -- 93
2019-08-06 08:00:00 14.8 0 Calma 6 Nordeste 0 -- -- 93
2019-08-06 07:00:00 14.6 0 Calma 6 Norte 0 -- -- 92
2019-08-06 06:00:00 14.2 0 Calma 3 Norte 0 -- -- 92
2019-08-06 05:00:00 13.9 0 Calma 3 Norte 0 -- -- 92
2019-08-06 04:00:00 13.2 0 Calma 4 Oeste 0 -- -- 92
2019-08-06 03:00:00 11.9 0 Calma 3 Noroeste 0 -- -- 90
2019-08-06 02:00:00 13.3 0 Calma 4 Sudeste 0 -- -- 89
2019-08-06 01:00:00 14.2 0 Calma 8 Norte 0 -- -- 86
2019-08-06 00:00:00 15.7 0 Calma -- -- 0 -- -- 81
2019-08-05 23:00:00 17.4 0 Calma 6 Oeste 0 -- -- 72
2019-08-05 22:00:00 20.8 6 Oeste 16 Oeste 0 -- -- 63
2019-08-05 21:00:00 24.1 12 Noroeste 23 Oeste 0 -- -- 49
2019-08-05 20:00:00 26.4 13 Noroeste 24 Noroeste 0 -- -- 42
2019-08-05 19:00:00 28.3 15 Noroeste 23 Noroeste 0 -- -- 38
2019-08-05 18:00:00 29.7 10 Noroeste 22 Noroeste 0 -- -- 35
2019-08-05 17:00:00 29.7 10 Oeste 26 Norte 0 -- -- 34
2019-08-05 16:00:00 29.2 8 Norte 24 Noroeste 0 -- -- 35
2019-08-05 15:00:00 28.4 11 Norte 24 Norte 0 -- -- 37
2019-08-05 14:00:00 27 11 Norte 20 Nordeste 0 -- -- 37
2019-08-05 13:00:00 25.6 8 Norte 16 Norte 0 -- -- 39
2019-08-05 12:00:00 23.3 5 Nordeste 12 Nordeste 0 -- -- 49
2019-08-05 11:00:00 20.2 4 Norte 10 Nordeste 0 -- -- 69
2019-08-05 10:00:00 17.4 3 Nordeste 9 Nordeste 0 -- -- 86
2019-08-05 09:00:00 14.6 2 Este 5 Nordeste 0 -- -- 91
2019-08-05 08:00:00 11.8 3 Este 5 Este 0 -- -- 90
2019-08-05 07:00:00 13.2 0 Calma -- -- 0 -- -- 90
2019-08-05 06:00:00 14.1 0 Calma 5 Nordeste 0 -- -- 90
2019-08-05 05:00:00 13.7 0 Calma 5 Nordeste 0 -- -- 89
2019-08-05 04:00:00 14 0 Calma 5 Sudoeste 0 -- -- 87
2019-08-05 03:00:00 14.8 2 Sudoeste 7 Sudoeste 0 -- -- 87
2019-08-05 02:00:00 15.5 5 Oeste 12 Oeste 0 -- -- 84
2019-08-05 01:00:00 15.5 5 Oeste 10 Oeste 0 -- -- 82
2019-08-05 00:00:00 16.9 4 Oeste 13 Oeste 0 -- -- 79
2019-08-04 23:00:00 18.2 6 Oeste 13 Noroeste 0 -- -- 73
2019-08-04 22:00:00 20.1 7 Oeste 20 Oeste 0 -- -- 64
2019-08-04 21:00:00 23.3 12 Oeste 22 Noroeste 0 -- -- 53
2019-08-04 20:00:00 24.8 11 Noroeste 25 Noroeste 0 -- -- 49
2019-08-04 19:00:00 27.5 15 Noroeste 26 Oeste 0 -- -- 43
2019-08-04 18:00:00 -- 14 Noroeste 24 Noroeste 0 -- -- --
2019-08-04 17:00:00 28.5 6 Noroeste 19 Norte 0 -- -- 40
2019-08-04 16:00:00 27 9 Norte 21 Norte 0 -- -- 44
2019-08-04 15:00:00 25.7 10 Norte 26 Norte 0 -- -- 47
2019-08-04 14:00:00 24.9 12 Norte 27 Norte 0 -- -- 50
2019-08-04 13:00:00 23.9 9 Norte 22 Nordeste 0 -- -- 56
2019-08-04 12:00:00 21.7 4 Nordeste 11 Nordeste 0 -- -- 67
2019-08-04 11:00:00 18.4 0 Calma 12 Nordeste 0 -- -- 80
2019-08-04 10:00:00 17.4 0 Calma 8 Oeste 0 -- -- 87
2019-08-04 09:00:00 16.8 0 Calma 4 Oeste 0 -- -- 89
2019-08-04 08:00:00 15.9 0 Calma 3 Oeste 0 -- -- 89
2019-08-04 07:00:00 15.6 0 Calma 7 Noroeste 0 -- -- 89
2019-08-04 06:00:00 14.8 0 Calma 5 Sudoeste 0 -- -- 89
2019-08-04 05:00:00 15.1 0 Calma 4 Sudoeste 0 -- -- 87
2019-08-04 04:00:00 15.3 0 Calma 7 Oeste 0 -- -- 85
2019-08-04 03:00:00 15.7 2 Sudoeste 7 Sudoeste 0 -- -- 81
2019-08-04 02:00:00 17.1 2 Sudoeste 10 Sudoeste 0 -- -- 78
2019-08-04 01:00:00 17.8 4 Oeste 13 Oeste 0 -- -- 73
2019-08-04 00:00:00 18.1 3 Oeste 12 Oeste 0 -- -- 68
2019-08-03 23:00:00 19.4 8 Oeste 13 Oeste 0 -- -- 60
2019-08-03 22:00:00 21.7 8 Oeste 19 Oeste 0 -- -- 50
2019-08-03 21:00:00 25.6 10 Noroeste 22 Noroeste 0 -- -- 42
2019-08-03 20:00:00 27.3 14 Noroeste 27 Noroeste 0 -- -- 38
2019-08-03 19:00:00 29.3 14 Noroeste 27 Noroeste 0 -- -- 33
2019-08-03 18:00:00 30.2 13 Noroeste 30 Noroeste 0 -- -- 28
2019-08-03 17:00:00 30.2 11 Noroeste 27 Noroeste 0 -- -- 28
2019-08-03 16:00:00 30.7 11 Norte 25 Norte 0 -- -- 28
2019-08-03 15:00:00 30.1 8 Noroeste 19 Noroeste 0 -- -- 26
2019-08-03 14:00:00 28.6 10 Norte 21 Norte 0 -- -- 31
2019-08-03 13:00:00 27.2 9 Norte 18 Norte 0 -- -- 33
2019-08-03 12:00:00 25.1 4 Norte 12 Noroeste 0 -- -- 52
2019-08-03 11:00:00 20.9 3 Norte 9 Noroeste 0 -- -- 79
2019-08-03 10:00:00 16.1 2 Norte 5 Norte 0 -- -- 92
2019-08-03 09:00:00 11.6 0 Calma -- -- 0 -- -- 92
2019-08-03 08:00:00 8.3 0 Calma 0 Calma 0 -- -- 91
2019-08-03 07:00:00 8.6 2 Nordeste 3 Nordeste 0 -- -- 90
2019-08-03 06:00:00 10.2 0 Calma 2 Sudoeste 0 -- -- 90
2019-08-03 05:00:00 11.9 0 Calma 5 Sur 0 -- -- 89
2019-08-03 04:00:00 12.7 0 Calma 6 Sudoeste 0 -- -- 87
2019-08-03 03:00:00 14.5 4 Sudoeste 9 Oeste 0 -- -- 86
2019-08-03 02:00:00 15.4 4 Sudoeste 9 Oeste 0 -- -- 81
2019-08-03 01:00:00 16.6 4 Sudoeste 8 Sudoeste 0 -- -- 76
2019-08-03 00:00:00 18.7 4 Oeste 12 Oeste 0 -- -- 66
2019-08-02 23:00:00 20.6 8 Oeste 13 Oeste 0 -- -- 58
2019-08-02 22:00:00 22.9 7 Noroeste 14 Noroeste 0 -- -- 47
2019-08-02 21:00:00 27.3 9 Noroeste 19 Noroeste 0 -- -- 35
2019-08-02 20:00:00 29 12 Noroeste 21 Noroeste 0 -- -- 31
2019-08-02 19:00:00 29.5 13 Norte 23 Noroeste 0 -- -- 31
2019-08-02 18:00:00 29.6 13 Norte 24 Norte 0 -- -- 31
2019-08-02 17:00:00 29.7 12 Norte 23 Nordeste 0 -- -- 31
2019-08-02 16:00:00 29.6 13 Norte 23 Norte 0 -- -- 30
2019-08-02 15:00:00 29.3 11 Nordeste 19 Nordeste 0 -- -- 37
2019-08-02 14:00:00 27.5 7 Norte 17 Nordeste 0 -- -- 39
2019-08-02 13:00:00 24.9 8 Norte 16 Nordeste 0 -- -- 47
2019-08-02 12:00:00 19.8 4 Norte 13 Nordeste 0 -- -- 90
2019-08-02 11:00:00 15 2 Nordeste 6 Nordeste 0 -- -- 93
2019-08-02 10:00:00 13.1 0 Calma 4 Este 0 -- -- 93
2019-08-02 09:00:00 12.3 0 Calma 2 Sudeste 0 -- -- 93
2019-08-02 08:00:00 11.7 0 Calma 4 Sur 0.1 -- -- 93
2019-08-02 07:00:00 11.7 0 Calma -- -- 0 -- -- 92
2019-08-02 06:00:00 11 0 Calma 0 Calma 0 -- -- 92
2019-08-02 05:00:00 8.9 0 Calma 5 Norte 0 -- -- 91
2019-08-02 04:00:00 10.1 0 Calma 4 Nordeste 0 -- -- 89
2019-08-02 03:00:00 11.1 0 Calma 2 Sudoeste 0 -- -- 88
2019-08-02 02:00:00 12.6 0 Calma 4 Sudoeste 0 -- -- 86
2019-08-02 01:00:00 14.3 2 Sudoeste 6 Oeste 0 -- -- 81
2019-08-02 00:00:00 16.5 3 Oeste 16 Norte 0 -- -- 80
2019-08-01 23:00:00 17.8 7 Norte 17 Noroeste 0 -- -- 72
2019-08-01 22:00:00 21.1 8 Noroeste 15 Noroeste 0 -- -- 55
2019-08-01 21:00:00 25.7 9 Noroeste 18 Noroeste 0 -- -- 42
2019-08-01 20:00:00 26.9 12 Norte 20 Noroeste 0 -- -- 38
2019-08-01 19:00:00 27.3 11 Norte 22 Norte 0 -- -- 36
2019-08-01 18:00:00 27.7 10 Norte 23 Norte 0 -- -- 37
2019-08-01 17:00:00 27.1 10 Norte 24 Nordeste 0 -- -- 38
2019-08-01 16:00:00 26.4 12 Norte 24 Norte 0 -- -- 37
2019-08-01 15:00:00 25.1 10 Nordeste 21 Nordeste 0 -- -- 44
2019-08-01 14:00:00 22.3 4 Nordeste 14 Nordeste 0 -- -- 57
2019-08-01 13:00:00 17.6 2 Noroeste 15 Nordeste 0 -- -- 90
2019-08-01 12:00:00 14 0 Calma 7 Nordeste 0 -- -- 93
2019-08-01 11:00:00 12.5 0 Calma 5 Este 0 -- -- 93
2019-08-01 10:00:00 11.7 0 Calma 5 Nordeste 0.1 -- -- 93
2019-08-01 09:00:00 10.8 0 Calma 5 Sur 0 -- -- 93
2019-08-01 08:00:00 10.1 2 Sudeste 5 Sudeste 0 -- -- 93
2019-08-01 07:00:00 9.3 0 Calma 3 Sudeste 0 -- -- 92
2019-08-01 06:00:00 7.4 0 Calma 3 Oeste 0 -- -- 92
2019-08-01 05:00:00 6.2 0 Calma 3 Nordeste 0 -- -- 90
2019-08-01 04:00:00 6.7 0 Calma 2 Oeste 0 -- -- 89
2019-08-01 03:00:00 8 0 Calma 4 Este 0 -- -- 87
2019-08-01 02:00:00 9.3 0 Calma 3 Sur 0 -- -- 83
2019-08-01 01:00:00 12.4 2 Sudoeste 6 Sudoeste 0 -- -- 79
2019-08-01 00:00:00 13.8 3 Sur 6 Sur 0 -- -- 73
2019-07-31 23:00:00 15.4 0 Calma 15 Norte 0 -- -- 66
2019-07-31 22:00:00 17.9 10 Norte 16 Noroeste 0 -- -- 52
2019-07-31 21:00:00 22 7 Norte 20 Norte 0 -- -- 41
2019-07-31 20:00:00 23.1 13 Norte 22 Norte 0 -- -- 39
2019-07-31 19:00:00 25.2 10 Norte 21 Nordeste 0 -- -- 36
2019-07-31 18:00:00 23.8 14 Norte 26 Norte 0 -- -- 39
2019-07-31 17:00:00 23.7 12 Norte 22 Noroeste 0 -- -- 41
2019-07-31 16:00:00 22.4 13 Norte 22 Noroeste 0 -- -- 44
2019-07-31 15:00:00 23 10 Norte 19 Norte 0 -- -- 42
2019-07-31 14:00:00 22.9 10 Norte 18 Norte 0 -- -- 41
2019-07-31 13:00:00 22.5 7 Norte 13 Nordeste 0 -- -- 39
2019-07-31 12:00:00 20 3 Nordeste 14 Nordeste 0 -- -- 52
2019-07-31 11:00:00 14.7 0 Calma 8 Oeste 0 -- -- 81
2019-07-31 10:00:00 12.2 0 Calma 7 Sudeste 0 -- -- 93
2019-07-31 09:00:00 7.5 0 Calma 3 Norte 0 -- -- 93
2019-07-31 08:00:00 3.7 0 Calma 0 Calma 0 -- -- 92
2019-07-31 07:00:00 3.8 0 Calma 3 Norte 0 -- -- 91
2019-07-31 06:00:00 4.6 0 Calma 5 Norte 0 -- -- 90
2019-07-31 05:00:00 6.8 0 Calma 5 Sur 0 -- -- 89
2019-07-31 04:00:00 7.9 0 Calma 7 Oeste 0 -- -- 89
2019-07-31 03:00:00 8.6 3 Sudoeste 9 Sudoeste 0 -- -- 86
2019-07-31 02:00:00 9.2 4 Sudoeste 10 Sudoeste 0 -- -- 81
2019-07-31 01:00:00 10.7 4 Oeste 13 Noroeste 0 -- -- 73
2019-07-31 00:00:00 12.2 6 Noroeste 13 Noroeste 0 -- -- 67
2019-07-30 23:00:00 13.3 8 Noroeste 14 Noroeste 0 -- -- 60
2019-07-30 22:00:00 14.9 8 Noroeste 18 Norte 0 -- -- 51
2019-07-30 21:00:00 18.8 10 Norte 24 Noroeste 0 -- -- 40
2019-07-30 20:00:00 20.9 14 Norte 30 Noroeste 0 -- -- 36
2019-07-30 19:00:00 21.8 13 Norte 27 Norte 0 -- -- 36
2019-07-30 18:00:00 21.9 15 Norte 29 Norte 0 -- -- 35
2019-07-30 17:00:00 21.7 14 Noroeste 28 Noroeste 0 -- -- 36
2019-07-30 16:00:00 21.4 12 Norte 27 Noroeste 0 -- -- 37
2019-07-30 15:00:00 20.5 12 Norte 32 Noroeste 0 -- -- 39
2019-07-30 14:00:00 19.3 14 Norte 27 Norte 0 -- -- 41
2019-07-30 13:00:00 17.4 12 Norte 27 Norte 0 -- -- 49
2019-07-30 12:00:00 16.9 11 Norte 24 Noroeste 0 -- -- 52
2019-07-30 11:00:00 15.2 12 Norte 21 Norte 0 -- -- 65
2019-07-30 10:00:00 12 7 Norte 16 Norte 0 -- -- 90
2019-07-30 09:00:00 9.5 0 Calma 5 Oeste 0 -- -- 92
2019-07-30 08:00:00 7.2 3 Oeste 7 Noroeste 0 -- -- 92
2019-07-30 07:00:00 5.9 0 Calma 10 Noroeste 0 -- -- 92
2019-07-30 06:00:00 7.2 6 Noroeste 12 Oeste 0 -- -- 92
2019-07-30 05:00:00 5.5 5 Noroeste 7 Noroeste 0 -- -- 89
2019-07-30 04:00:00 7.2 0 Calma 9 Norte 0 -- -- 89
2019-07-30 03:00:00 8.8 6 Norte 16 Noroeste 0 -- -- 88
2019-07-30 02:00:00 10 6 Noroeste 12 Oeste 0 -- -- 87
2019-07-30 01:00:00 9.2 6 Oeste 10 Oeste 0 -- -- 84
2019-07-30 00:00:00 10.6 5 Oeste 20 Noroeste 0 -- -- 79
2019-07-29 23:00:00 12.1 13 Oeste 22 Noroeste 0 -- -- 71
2019-07-29 22:00:00 13.6 8 Noroeste 24 Oeste 0 -- -- 60
2019-07-29 21:00:00 16 14 Oeste 30 Oeste 0 -- -- 51
2019-07-29 20:00:00 17.5 18 Noroeste 32 Oeste 0 -- -- 48
2019-07-29 19:00:00 18.4 18 Noroeste 32 Oeste 0 -- -- 45
2019-07-29 18:00:00 19.7 17 Oeste 35 Noroeste 0 -- -- 41
2019-07-29 17:00:00 19.5 21 Noroeste 37 Noroeste 0 -- -- 43
2019-07-29 16:00:00 20.3 21 Noroeste 40 Noroeste 0 -- -- 42
2019-07-29 15:00:00 20.5 19 Noroeste 39 Noroeste 0 -- -- 47
2019-07-29 14:00:00 19.6 18 Noroeste 37 Noroeste 0 -- -- 44
2019-07-29 13:00:00 19.1 15 Noroeste 28 Oeste 0 -- -- 49
2019-07-29 12:00:00 18.5 17 Noroeste 30 Noroeste 0 -- -- 48
2019-07-29 11:00:00 17.1 12 Noroeste 26 Noroeste 0 -- -- 56
2019-07-29 10:00:00 15.2 12 Noroeste 26 Noroeste 0 -- -- 79
2019-07-29 09:00:00 13 8 Noroeste 16 Noroeste 0.1 -- -- 89
2019-07-29 08:00:00 11.5 0 Calma 7 Nordeste 0 -- -- 86
2019-07-29 07:00:00 11.8 3 Sudeste 8 Sur 0.1 -- -- 79
2019-07-29 06:00:00 12.2 3 Sudeste 8 Sudoeste 0 -- -- 72
2019-07-29 05:00:00 11.7 2 Sudeste 9 Sudeste 0 -- -- 75
2019-07-29 04:00:00 10.9 4 Noroeste 7 Noroeste 0 -- -- 78
2019-07-29 03:00:00 11.2 3 Sur 7 Sur 0 -- -- 78
2019-07-29 02:00:00 11.2 0 Calma 13 Sudoeste 0 -- -- 75
2019-07-29 01:00:00 12.3 7 Sur 12 Sur 0 -- -- 73
2019-07-29 00:00:00 13.8 8 Sudoeste 17 Oeste 0 -- -- 66
2019-07-28 23:00:00 15.7 3 Oeste 29 Oeste 0 -- -- 56
2019-07-28 22:00:00 18.4 17 Oeste 38 Oeste 0 -- -- 48
2019-07-28 21:00:00 22.3 14 Oeste 29 Oeste 0 -- -- 39
2019-07-28 20:00:00 25.9 9 Oeste 24 Oeste 0 -- -- 32
2019-07-28 19:00:00 27.8 8 Oeste 21 Sur 0 -- -- 27
2019-07-28 18:00:00 28 8 Oeste 25 Oeste 0 -- -- 25
2019-07-28 17:00:00 27.8 12 Oeste 27 Noroeste 0 -- -- 27
2019-07-28 16:00:00 27.1 11 Oeste 26 Noroeste 0 -- -- 27
2019-07-28 15:00:00 26.5 8 Noroeste 24 Sudoeste 0 -- -- 26
2019-07-28 14:00:00 25 6 Oeste 23 Oeste 0 -- -- 33
2019-07-28 13:00:00 23.9 12 Sudeste 26 Este 0 -- -- 41
2019-07-28 12:00:00 21.8 14 Sudeste 25 Sudeste 0 -- -- 47
2019-07-28 11:00:00 18.9 17 Sudeste 27 Sudeste 0 -- -- 62
2019-07-28 10:00:00 12.2 0 Calma 8 Sudoeste 0 -- -- 93
2019-07-28 09:00:00 8 2 Sudoeste 5 Sudoeste 0 -- -- 93
2019-07-28 08:00:00 5.2 0 Calma 2 Sudoeste 0 -- -- 93
2019-07-28 07:00:00 5 0 Calma 0 Calma 0 -- -- 92
2019-07-28 06:00:00 5.1 0 Calma 0 Calma 0 -- -- 92
2019-07-28 05:00:00 6.6 0 Calma 10 Sur 0 -- -- 91
2019-07-28 04:00:00 8 5 Sudeste 9 Sudeste 0 -- -- 90
2019-07-28 03:00:00 8.9 3 Sudoeste 10 Sur 0 -- -- 89
2019-07-28 02:00:00 10.7 5 Oeste 13 Noroeste 0 -- -- 88
2019-07-28 01:00:00 10.7 8 Sur 11 Sur 0 -- -- 85
2019-07-28 00:00:00 11.8 8 Noroeste 16 Noroeste 0 -- -- 81
2019-07-27 23:00:00 13.1 9 Norte 14 Norte 0 -- -- 77
2019-07-26 12:00:00 18.1 12 Noroeste 23 Noroeste 0 -- -- 65
2019-07-26 11:00:00 17 13 Norte 22 Norte 0 -- -- 84
2019-07-26 10:00:00 14.3 6 Norte 15 Noroeste 0 -- -- 94
2019-07-26 09:00:00 12.5 0 Calma 4 Norte 0 -- -- 94
2019-07-26 08:00:00 10.7 0 Calma -- -- 0 -- -- 94
2019-07-26 07:00:00 9.8 0 Calma 3 Este 0 -- -- 93
2019-07-26 06:00:00 8.9 0 Calma 5 Sudoeste 0 -- -- 93
2019-07-26 05:00:00 8.4 0 Calma 4 Oeste 0 -- -- 92
2019-07-26 04:00:00 8.8 2 Sudoeste 5 Oeste 0 -- -- 92
2019-07-26 03:00:00 9.6 0 Calma 11 Oeste 0 -- -- 92
2019-07-26 02:00:00 10.7 4 Noroeste 14 Oeste 0 -- -- 91
2019-07-26 01:00:00 11.2 0 Calma 10 Oeste 0 -- -- 90
2019-07-26 00:00:00 12.7 5 Noroeste 12 Oeste 0 -- -- 90
2019-07-25 23:00:00 14.1 8 Oeste 16 Noroeste 0 -- -- 90
2019-07-25 22:00:00 15.9 3 Noroeste 9 Noroeste 0 -- -- 90
2019-07-25 21:00:00 16.3 2 Norte 8 Nordeste 0 -- -- 90
2019-07-25 20:00:00 16.1 5 Noroeste 18 Noroeste 1.7 -- -- 89
2019-07-25 19:00:00 16.8 5 Norte 13 Nordeste 0 -- -- 85
2019-07-25 18:00:00 18 7 Oeste 16 Oeste 0 -- -- 86
2019-07-25 17:00:00 17.8 10 Oeste 26 Oeste 0 -- -- 85
2019-07-25 16:00:00 19.5 15 Oeste 33 Oeste 0 -- -- 74
2019-07-25 15:00:00 23.3 8 Oeste 23 Oeste 0 -- -- 52
2019-07-25 14:00:00 25.3 10 Sur 26 Sur 0 -- -- 43
2019-07-25 13:00:00 25.1 6 Sudoeste 21 Sur 0 -- -- 48
2019-07-25 12:00:00 22.7 3 Sur 18 Oeste 0 -- -- 56
2019-07-25 11:00:00 22.2 5 Oeste 19 Sudeste 0 -- -- 58
2019-07-25 10:00:00 20.6 6 Este 12 Sudeste 0 -- -- 79
2019-07-25 09:00:00 14.3 0 Calma 6 Oeste 0 -- -- 92
2019-07-25 08:00:00 11 2 Oeste 8 Sudoeste 0 -- -- 91
2019-07-25 07:00:00 11 3 Sur 10 Sudoeste 0 -- -- 89
2019-07-25 06:00:00 11.4 3 Sudoeste 9 Sudoeste 0 -- -- 87
2019-07-25 05:00:00 11.9 4 Oeste 9 Oeste 0 -- -- 85
2019-07-25 04:00:00 12.3 5 Sudoeste 11 Oeste 0 -- -- 84
2019-07-25 03:00:00 12.7 4 Oeste 8 Oeste 0 -- -- 83
2019-07-25 02:00:00 13 0 Calma 6 Oeste 0 -- -- 79
2019-07-25 01:00:00 15.1 3 Sudeste 9 Sur 0 -- -- 73
2019-07-25 00:00:00 17.4 3 Oeste 15 Oeste 0 -- -- 67
2019-07-24 23:00:00 19.2 9 Oeste 18 Oeste 0 -- -- 52
2019-07-24 22:00:00 21.7 0 Calma 18 Oeste 0 -- -- 41
2019-07-24 21:00:00 25.4 7 Oeste 33 Oeste 0 -- -- 33
2019-07-24 20:00:00 28.4 11 Oeste 31 Oeste 0 -- -- 28
2019-07-24 19:00:00 30.1 13 Oeste 26 Oeste 0 -- -- 28
2019-07-24 18:00:00 30.6 13 Oeste 33 Oeste 0 -- -- 30
2019-07-24 17:00:00 32.5 13 Sudoeste 42 Sudoeste 0 -- -- 23
2019-07-24 16:00:00 32.6 10 Sudoeste 38 Oeste 0 -- -- 25
2019-07-24 15:00:00 32.4 9 Sudoeste 33 Sur 0 -- -- 28
2019-07-24 14:00:00 32.6 7 Sur 27 Sudeste 0 -- -- 31
2019-07-24 13:00:00 30.6 18 Sudeste 31 Sudeste 0 -- -- 37
2019-07-24 12:00:00 28.8 12 Este 22 Este 0 -- -- 42
2019-07-24 11:00:00 23.4 6 Sudeste 13 Norte 0 -- -- 56
2019-07-24 10:00:00 17.5 3 Este 8 Sudeste 0 -- -- 81
2019-07-24 09:00:00 12.8 0 Calma 5 Sudeste 0 -- -- 92
2019-07-24 08:00:00 8.9 0 Calma 4 Sudoeste 0 -- -- 91
2019-07-24 07:00:00 9.1 0 Calma 8 Sudoeste 0 -- -- 91
2019-07-24 06:00:00 9.4 5 Sudoeste 8 Sudoeste 0 -- -- 91
2019-07-24 05:00:00 9.6 5 Sudoeste 8 Oeste 0 -- -- 90
2019-07-24 04:00:00 9.5 0 Calma -- -- 0 -- -- 89
2019-07-24 03:00:00 10.5 0 Calma 5 Sur 0 -- -- 85
2019-07-24 02:00:00 12.2 2 Sudeste 6 Oeste 0 -- -- 81
2019-07-24 01:00:00 13.9 4 Oeste 6 Sur 0 -- -- 76
2019-07-24 00:00:00 15.4 0 Calma 8 Sudoeste 0 -- -- 66
2019-07-23 23:00:00 18.3 3 Sudoeste 6 Oeste 0 -- -- 56
2019-07-23 22:00:00 21.8 0 Calma 13 Noroeste 0 -- -- 46
2019-07-23 21:00:00 25.3 7 Noroeste 24 Noroeste 0 -- -- 37
2019-07-23 20:00:00 27.5 7 Nordeste 14 Norte 0 -- -- 42
2019-07-23 19:00:00 26.2 7 Noroeste 26 Noroeste 0 -- -- 43
2019-07-23 18:00:00 29.2 15 Noroeste 31 Noroeste 0 -- -- 41
2019-07-23 17:00:00 29.8 11 Oeste 29 Oeste 0 -- -- 35
2019-07-23 16:00:00 32 15 Oeste 27 Oeste 0 -- -- 35
2019-07-23 15:00:00 30.5 4 Sudoeste 22 Sudeste 0 -- -- 36
2019-07-23 14:00:00 30.8 10 Sudeste 32 Sudeste 0 -- -- 39
2019-07-23 13:00:00 28 19 Sudeste 34 Sudeste 0 -- -- 44
2019-07-23 12:00:00 25.6 12 Sudeste 27 Sudeste 0 -- -- 49
2019-07-23 11:00:00 24.9 13 Sudeste 20 Sudeste 0 -- -- 49
2019-07-23 10:00:00 22.6 9 Sudeste 15 Sudeste 0 -- -- 60
2019-07-23 09:00:00 20.4 10 Sudeste 21 Sudeste 0 -- -- 63
2019-07-23 08:00:00 19.8 5 Sudoeste 28 Sudeste 0 -- -- 64
2019-07-23 07:00:00 19.4 18 Sudeste 45 Sudeste 1.9 -- -- 71
2019-07-23 06:00:00 17.8 6 Sur 13 Sur 0.2 -- -- 86
2019-07-23 05:00:00 17.6 5 Sudoeste 12 Sudoeste 0 -- -- 84
2019-07-23 04:00:00 18.5 2 Sur 10 Sudeste 0 -- -- 79
2019-07-23 03:00:00 19.3 5 Sudeste 12 Sudeste 0 -- -- 79
2019-07-23 02:00:00 20.3 3 Sudoeste 11 Sudoeste 0 -- -- 77
2019-07-23 01:00:00 21.1 2 Oeste 7 Oeste 0 -- -- 68
2019-07-23 00:00:00 22.7 3 Sudoeste 12 Este 0 -- -- 64
2019-07-22 23:00:00 24.6 4 Sur 10 Oeste 0 -- -- 58
2019-07-22 22:00:00 28 5 Oeste 10 Noroeste 0 -- -- 47
2019-07-22 21:00:00 31.6 6 Noroeste 14 Noroeste 0 -- -- 37
2019-07-22 20:00:00 33.9 7 Norte 17 Noroeste 0 -- -- 33
2019-07-22 19:00:00 35.1 8 Noroeste 18 Oeste 0 -- -- 29
2019-07-22 18:00:00 36 9 Oeste 21 Noroeste 0 -- -- 28
2019-07-22 17:00:00 36.5 7 Noroeste 19 Norte 0 -- -- 30
2019-07-22 16:00:00 36.6 3 Este 23 Este 0 -- -- 27
2019-07-22 15:00:00 35.2 10 Nordeste 23 Este 0 -- -- 30
2019-07-22 14:00:00 33.7 7 Sudeste 21 Este 0 -- -- 33
2019-07-22 13:00:00 31.5 8 Sudeste 19 Este 0 -- -- 39
2019-07-22 12:00:00 23.4 3 Norte 10 Nordeste 0 -- -- 81
2019-07-22 11:00:00 17.8 0 Calma 7 Este 0 -- -- 93
2019-07-22 10:00:00 14.9 0 Calma 5 Sudeste 0 -- -- 93
2019-07-22 09:00:00 14.2 0 Calma 6 Sudeste 0 -- -- 93
2019-07-22 08:00:00 14 3 Sur 5 Sur 0 -- -- 93
2019-07-22 07:00:00 13.6 0 Calma 0 Calma 0.1 -- -- 93
2019-07-22 06:00:00 13.3 0 Calma 3 Noroeste 0 -- -- 92
2019-07-22 05:00:00 12.4 0 Calma 4 Este 0 -- -- 91
2019-07-22 04:00:00 11 3 Nordeste 4 Nordeste 0 -- -- 89
2019-07-22 03:00:00 12.6 0 Calma 4 Sur 0 -- -- 87
2019-07-22 02:00:00 13.9 0 Calma 8 Sudeste 0 -- -- 85
2019-07-22 01:00:00 15.3 3 Sudeste 6 Este 0 -- -- 82
2019-07-22 00:00:00 17 0 Calma 5 Sudoeste 0 -- -- 76
2019-07-21 23:00:00 19.7 3 Noroeste 19 Norte 0 -- -- 69
2019-07-21 22:00:00 22 10 Norte 17 Noroeste 0 -- -- 58
2019-07-21 21:00:00 27.3 10 Norte 21 Norte 0 -- -- 35
2019-07-21 20:00:00 28.8 11 Norte 22 Norte 0 -- -- 34
2019-07-21 19:00:00 29.5 13 Noroeste 22 Noroeste 0 -- -- 33
2019-07-21 18:00:00 29.6 12 Norte 24 Noroeste 0 -- -- 30
2019-07-21 17:00:00 28.7 15 Norte 24 Norte 0 -- -- 37
2019-07-21 16:00:00 28.1 15 Norte 24 Noroeste 0 -- -- 42
2019-07-21 15:00:00 27.1 11 Norte 19 Norte 0 -- -- 44
2019-07-21 14:00:00 25 8 Nordeste 15 Nordeste 0 -- -- 52
2019-07-21 13:00:00 20.8 3 Norte 11 Norte 0 -- -- 67
2019-07-21 12:00:00 17.2 3 Norte 12 Norte 0 -- -- 85
2019-07-21 11:00:00 14.9 5 Noroeste 11 Noroeste 0 -- -- 91
2019-07-21 10:00:00 14.3 0 Calma 13 Noroeste 0 -- -- 92
2019-07-21 09:00:00 14.3 4 Noroeste 9 Noroeste 0 -- -- 92
2019-07-21 08:00:00 13.9 0 Calma 8 Noroeste 0 -- -- 92
2019-07-21 07:00:00 14.1 4 Noroeste 7 Noroeste 0 -- -- 92
2019-07-21 06:00:00 14.1 0 Calma 5 Oeste 0 -- -- 92
2019-07-21 05:00:00 13.8 2 Noroeste 10 Noroeste 0 -- -- 92
2019-07-21 04:00:00 12 0 Calma 3 Noroeste 0 -- -- 90
2019-07-21 03:00:00 12.4 0 Calma 4 Sur 0 -- -- 88
2019-07-21 02:00:00 14.4 0 Calma 9 Oeste 0 -- -- 86
2019-07-21 01:00:00 15.6 0 Calma 6 Noroeste 0 -- -- 82
2019-07-21 00:00:00 17.1 3 Noroeste 18 Noroeste 0 -- -- 78
2019-07-20 23:00:00 18.6 6 Noroeste 18 Noroeste 0 -- -- 71
2019-07-20 22:00:00 20.9 9 Noroeste 20 Noroeste 0 -- -- 61
2019-07-20 21:00:00 24.2 11 Noroeste 25 Noroeste 0 -- -- 51
2019-07-20 20:00:00 26.8 15 Noroeste -- -- -- -- -- 45
2019-07-20 19:00:00 27.6 13 Norte 30 Norte 0 -- -- 44
2019-07-20 18:00:00 28.1 14 Noroeste 27 Noroeste 0 -- -- 41
2019-07-20 17:00:00 27.9 15 Norte 26 Noroeste 0 -- -- 39
2019-07-20 16:00:00 28.1 11 Noroeste 27 Norte 0 -- -- 38
2019-07-20 15:00:00 27.5 13 Norte 24 Norte 0 -- -- 39
2019-07-20 14:00:00 26.8 9 Norte 35 Norte 0 -- -- 42
2019-07-20 13:00:00 25 10 Norte 22 Norte 0 -- -- 48
2019-07-20 12:00:00 23.8 11 Norte 18 Norte 0 -- -- 52
2019-07-20 11:00:00 22.3 6 Norte 16 Norte 0 -- -- 60
2019-07-20 10:00:00 19.7 4 Nordeste 9 Noroeste 0 -- -- 80
2019-07-20 09:00:00 15.9 0 Calma 2 Oeste 0 -- -- 91
2019-07-20 08:00:00 11.8 0 Calma 0 Calma 0 -- -- 90
2019-07-20 07:00:00 12.3 0 Calma 4 Noroeste 0 -- -- 90
2019-07-20 06:00:00 14.6 0 Calma 8 Noroeste 0 -- -- 90
2019-07-20 05:00:00 14.7 3 Sudoeste 7 Sudoeste 0 -- -- 89
2019-07-20 04:00:00 14.5 3 Oeste 9 Oeste 0 -- -- 87
2019-07-20 03:00:00 15.2 2 Noroeste 11 Oeste 0 -- -- 84
2019-07-20 02:00:00 16.6 6 Oeste 18 Noroeste 0 -- -- 80
2019-07-20 01:00:00 17.4 6 Noroeste 12 Noroeste 0 -- -- 76
2019-07-20 00:00:00 18.8 4 Noroeste 17 Oeste 0 -- -- 69
2019-07-19 23:00:00 20.5 9 Oeste 16 Oeste 0 -- -- 63
2019-07-19 22:00:00 22.9 9 Noroeste 22 Oeste 0 -- -- 49
2019-07-19 21:00:00 26.7 12 Noroeste 24 Noroeste 0 -- -- 39
2019-07-19 20:00:00 28.9 14 Noroeste 29 Oeste 0 -- -- 35
2019-07-19 19:00:00 30.2 15 Noroeste 24 Norte 0 -- -- 32
2019-07-19 18:00:00 31.3 14 Noroeste 25 Noroeste 0 -- -- 31
2019-07-19 17:00:00 31.7 12 Noroeste 23 Norte 0 -- -- 30
2019-07-19 16:00:00 31.4 14 Norte 26 Noroeste 0 -- -- 29
2019-07-19 15:00:00 31.3 14 Norte 28 Este 0 -- -- 29
2019-07-19 14:00:00 30.9 10 Norte 22 Noroeste 0 -- -- 29
2019-07-19 13:00:00 29.8 7 Oeste 17 Este 0 -- -- 33
2019-07-19 12:00:00 27.4 7 Este 15 Sudeste 0 -- -- 44
2019-07-19 11:00:00 20.9 2 Oeste 7 Noroeste 0 -- -- 89
2019-07-19 10:00:00 15.3 2 Oeste 6 Oeste 0 -- -- 93
2019-07-19 09:00:00 13.6 0 Calma -- -- -- -- -- 93
2019-07-19 08:00:00 12.8 2 Sudoeste 5 Sudoeste 0 -- -- 93
2019-07-19 07:00:00 13 0 Calma 3 Sudeste 0 -- -- 92
2019-07-19 06:00:00 11.1 0 Calma 5 Noroeste 0 -- -- 92
2019-07-19 05:00:00 12 3 Sudeste 6 Sudeste 0 -- -- 91
2019-07-19 04:00:00 11.8 0 Calma 4 Oeste 0 -- -- 90
2019-07-19 03:00:00 14.3 0 Calma 6 Sudoeste 0 -- -- 90
2019-07-19 02:00:00 15.3 2 Sudoeste 8 Sudoeste 0 -- -- 88
2019-07-19 01:00:00 16 3 Sudoeste 5 Sudoeste 0 -- -- 84
2019-07-19 00:00:00 17.2 0 Calma 7 Oeste 0 -- -- 73